createdAt,value
2018-06-19T00:19:22.858Z,15.76
2018-06-19T00:21:54.519Z,15.73
2018-06-19T00:24:23.196Z,15.71
2018-06-19T00:26:51.699Z,15.68
2018-06-19T00:29:20.168Z,15.60
2018-06-19T00:31:48.882Z,15.60
2018-06-19T00:34:17.409Z,15.65
2018-06-19T00:36:45.824Z,15.58
2018-06-19T00:39:14.341Z,15.55
2018-06-19T00:41:42.900Z,15.51
2018-06-19T00:44:12.185Z,15.51
2018-06-19T00:46:43.315Z,15.52
2018-06-19T00:49:11.763Z,15.54
2018-06-19T00:51:40.176Z,15.51
2018-06-19T00:54:08.673Z,15.52
2018-06-19T00:56:48.431Z,15.53
2018-06-19T00:59:16.872Z,15.51
2018-06-19T01:21:52.784Z,15.56
2018-06-19T01:24:31.885Z,15.59
2018-06-19T01:27:00.385Z,15.58
2018-06-19T01:29:28.870Z,15.60
2018-06-19T01:31:57.348Z,15.61
2018-06-19T01:34:25.844Z,15.61
2018-06-19T01:36:54.318Z,15.66
2018-06-19T01:39:22.802Z,15.69
2018-06-19T01:59:19.053Z,15.51
2018-06-19T02:01:47.464Z,15.54
2018-06-19T02:04:16.120Z,15.57
2018-06-19T02:06:44.588Z,15.58
2018-06-19T02:09:13.019Z,15.61
2018-06-19T02:11:41.486Z,15.65
2018-06-19T02:14:10.043Z,15.70
2018-06-19T02:50:13.450Z,15.24
2018-06-19T02:52:41.969Z,15.23
2018-06-19T02:55:10.460Z,15.23
2018-06-19T02:57:38.908Z,15.24
2018-06-19T03:00:07.413Z,15.24
2018-06-19T03:02:35.929Z,15.23
2018-06-19T03:05:04.679Z,15.22
2018-06-19T03:07:33.144Z,15.19
2018-06-19T03:10:01.640Z,15.20
2018-06-19T03:12:30.066Z,15.17
2018-06-19T03:14:58.651Z,15.15
2018-06-19T03:17:27.413Z,15.13
2018-06-19T03:19:56.094Z,15.14
2018-06-19T03:22:24.581Z,15.17
2018-06-19T03:51:43.010Z,15.30
2018-06-19T03:54:11.584Z,15.31
2018-06-19T04:20:44.529Z,15.46
2018-06-19T04:23:12.945Z,15.50
2018-06-19T04:25:41.400Z,15.51
2018-06-19T04:28:10.057Z,15.56
2018-06-19T04:30:38.456Z,15.58
2018-06-19T04:33:06.930Z,15.60
2018-06-19T04:35:35.353Z,15.62
2018-06-19T04:38:03.853Z,15.65
2018-06-19T04:40:32.381Z,15.68
2018-06-19T04:43:00.901Z,15.70
2018-06-19T04:45:29.357Z,15.72
2018-06-19T04:47:57.792Z,15.76
2018-06-19T04:50:26.336Z,15.77
2018-06-19T04:52:54.785Z,15.82
2018-06-19T04:55:23.287Z,15.86
2018-06-19T04:57:51.719Z,15.91
2018-06-19T05:21:04.373Z,16.13
2018-06-19T05:23:32.871Z,16.17
2018-06-19T05:26:01.381Z,16.23
2018-06-19T05:28:29.778Z,16.26
2018-06-19T05:30:58.338Z,16.29
2018-06-19T05:33:26.958Z,16.35
2018-06-19T05:35:55.558Z,16.38
2018-06-19T05:38:24.109Z,16.42
2018-06-19T05:40:52.691Z,16.44
2018-06-19T05:43:21.171Z,16.46
2018-06-19T05:45:49.640Z,16.50
2018-06-19T05:48:18.244Z,16.52
2018-06-19T06:21:25.997Z,16.74
2018-06-19T06:23:54.634Z,16.76
2018-06-19T06:26:23.149Z,16.78
2018-06-19T06:28:51.600Z,16.81
2018-06-19T06:31:20.089Z,16.82
2018-06-19T06:33:48.528Z,16.80
2018-06-19T06:36:16.957Z,16.83
2018-06-19T06:58:53.237Z,16.79
2018-06-19T07:01:22.005Z,16.82
2018-06-19T07:03:50.409Z,16.90
2018-06-19T07:06:19.097Z,16.97
2018-06-19T07:25:45.785Z,17.47
2018-06-19T07:28:14.237Z,17.50
2018-06-19T07:30:42.741Z,17.55
2018-06-19T07:33:11.296Z,17.58
2018-06-19T07:35:39.837Z,17.61
2018-06-19T07:38:08.566Z,17.67
2018-06-19T07:40:37.256Z,17.71
2018-06-19T07:43:12.905Z,17.78
2018-06-19T07:45:41.328Z,17.78
2018-06-19T08:22:10.861Z,18.38
2018-06-19T08:24:39.413Z,18.37
2018-06-19T08:27:08.181Z,18.36
2018-06-19T08:29:36.663Z,18.38
2018-06-19T08:32:05.128Z,18.42
2018-06-19T08:34:33.679Z,18.40
2018-06-19T08:37:02.229Z,18.43
2018-06-19T08:39:30.660Z,18.47
2018-06-19T08:41:59.184Z,18.49
2018-06-19T08:44:27.618Z,18.50
2018-06-19T08:46:56.056Z,18.54
2018-06-19T08:49:24.466Z,18.55
2018-06-19T08:51:53.004Z,18.54
2018-06-19T08:54:21.487Z,18.58
2018-06-19T08:56:50.079Z,18.63
2018-06-19T08:59:18.879Z,18.66
2018-06-19T09:01:47.392Z,18.70
2018-06-19T09:04:15.914Z,18.78
2018-06-19T09:06:44.508Z,18.88
2018-06-19T09:09:13.212Z,18.94
2018-06-19T09:11:41.670Z,19.00
2018-06-19T09:14:10.204Z,19.10
2018-06-19T09:16:38.758Z,19.22
2018-06-19T09:19:07.234Z,19.27
2018-06-19T09:21:35.699Z,19.39
2018-06-19T09:24:04.309Z,19.46
2018-06-19T09:26:32.812Z,19.53
2018-06-19T09:29:01.349Z,19.54
2018-06-19T09:31:29.903Z,19.60
2018-06-19T09:33:58.428Z,19.74
2018-06-19T09:36:27.965Z,19.80
2018-06-19T09:38:56.500Z,19.80
2018-06-19T09:41:25.105Z,19.82
2018-06-19T09:43:53.682Z,19.81
2018-06-19T09:46:22.173Z,19.83
2018-06-19T09:48:50.762Z,19.87
2018-06-19T09:51:19.372Z,19.98
2018-06-19T09:53:47.865Z,20.00
2018-06-19T09:56:16.342Z,20.04
2018-06-19T09:58:44.776Z,20.06
2018-06-19T10:01:13.233Z,20.09
2018-06-19T10:03:41.798Z,20.23
2018-06-19T10:06:10.404Z,20.33
2018-06-19T10:08:38.926Z,20.29
2018-06-19T10:31:15.033Z,20.65
2018-06-19T10:33:43.499Z,20.85
2018-06-19T10:36:12.081Z,20.90
2018-06-19T10:38:40.564Z,21.08
2018-06-19T10:41:09.027Z,21.23
2018-06-19T10:43:37.583Z,21.28
2018-06-19T10:46:06.100Z,21.36
2018-06-19T10:48:34.604Z,21.43
2018-06-19T10:51:03.078Z,21.40
2018-06-19T10:53:31.513Z,21.39
2018-06-19T10:56:01.999Z,21.40
2018-06-19T10:58:30.471Z,21.53
2018-06-19T11:00:58.956Z,21.69
2018-06-19T11:03:27.404Z,21.76
2018-06-19T11:23:15.787Z,23.26
2018-06-19T11:25:44.391Z,23.29
2018-06-19T11:28:13.001Z,23.25
2018-06-19T11:30:41.517Z,23.31
2018-06-19T11:33:10.053Z,23.29
2018-06-19T11:35:38.599Z,23.12
2018-06-19T11:38:08.596Z,22.93
2018-06-19T11:40:38.252Z,22.88
2018-06-19T11:43:06.800Z,22.76
2018-06-19T11:45:35.324Z,22.62
2018-06-19T11:48:03.784Z,22.46
2018-06-19T11:50:32.453Z,22.32
2018-06-19T11:53:00.969Z,22.29
2018-06-19T11:55:29.435Z,22.26
2018-06-19T11:57:57.876Z,22.23
2018-06-19T12:00:26.341Z,22.16
2018-06-19T12:02:56.341Z,22.19
2018-06-19T12:05:25.015Z,22.20
2018-06-19T12:07:56.485Z,22.12
2018-06-19T12:27:11.340Z,22.07
2018-06-19T12:29:40.045Z,22.25
2018-06-19T12:32:08.792Z,22.52
2018-06-19T12:34:37.327Z,22.91
2018-06-19T12:37:05.945Z,23.13
2018-06-19T12:39:34.601Z,23.14
2018-06-19T12:42:03.071Z,22.99
2018-06-19T12:44:31.704Z,22.81
2018-06-19T13:24:00.497Z,23.26
2018-06-19T13:26:29.541Z,23.05
2018-06-19T13:31:12.715Z,22.82
2018-06-19T13:33:41.170Z,22.83
2018-06-19T13:36:09.746Z,22.97
2018-06-19T13:38:38.523Z,23.14
2018-06-19T13:41:21.646Z,23.21
2018-06-19T13:44:03.195Z,23.23
2018-06-19T13:46:31.831Z,23.20
2018-06-19T13:49:00.331Z,23.18
2018-06-19T13:51:28.884Z,23.36
2018-06-19T13:53:57.320Z,23.52
2018-06-19T13:57:37.131Z,23.74
2018-06-19T14:00:08.251Z,23.45
2018-06-19T14:02:36.950Z,23.58
2018-06-19T14:05:06.414Z,23.82
2018-06-19T14:07:40.578Z,23.82
2018-06-19T14:10:26.480Z,23.79
2018-06-19T14:13:01.844Z,23.75
2018-06-19T14:15:39.715Z,23.78
2018-06-19T14:18:11.677Z,23.71
2018-06-19T14:20:40.897Z,23.62
2018-06-19T14:23:10.798Z,23.56
2018-06-19T14:25:39.252Z,23.53
2018-06-19T14:28:07.760Z,23.43
2018-06-19T14:30:36.286Z,23.49
2018-06-19T14:33:05.197Z,23.35
2018-06-19T14:35:33.720Z,23.22
2018-06-19T14:38:02.300Z,23.16
2018-06-19T14:40:30.791Z,23.10
2018-06-19T14:42:59.369Z,23.07
2018-06-19T14:45:28.004Z,23.05
2018-06-19T14:47:56.542Z,22.91
2018-06-19T14:50:28.192Z,22.84
2018-06-19T14:52:56.781Z,22.71
2018-06-19T14:55:25.248Z,22.71
2018-06-19T14:58:00.036Z,22.75
2018-06-19T15:00:28.580Z,22.85
2018-06-19T15:02:57.052Z,22.92
2018-06-19T15:05:25.532Z,22.98
2018-06-19T15:07:55.495Z,23.06
2018-06-19T15:10:24.367Z,23.10
2018-06-19T15:12:52.920Z,23.22
2018-06-19T15:15:21.397Z,23.22
2018-06-19T15:17:50.291Z,23.17
2018-06-19T15:20:22.475Z,23.15
2018-06-19T15:22:52.737Z,23.18
2018-06-19T15:25:21.251Z,23.19
2018-06-19T15:27:49.751Z,23.28
2018-06-19T15:30:18.172Z,23.30
2018-06-19T15:32:46.718Z,23.19
2018-06-19T15:35:15.296Z,23.08
2018-06-19T15:37:44.860Z,22.98
2018-06-19T15:40:13.389Z,22.96
2018-06-19T15:42:47.782Z,22.93
2018-06-19T15:45:16.794Z,22.96
2018-06-19T15:47:45.205Z,22.93
2018-06-19T15:50:13.807Z,22.84
2018-06-19T15:52:42.361Z,22.85
2018-06-19T15:55:10.929Z,22.92
2018-06-19T15:57:39.911Z,22.95
2018-06-19T16:00:08.439Z,22.93
2018-06-19T16:02:37.010Z,22.94
2018-06-19T16:05:07.113Z,22.90
2018-06-19T16:07:39.113Z,22.85
2018-06-19T16:10:07.685Z,22.78
2018-06-19T16:12:36.363Z,22.80
2018-06-19T16:15:07.785Z,22.79
2018-06-19T16:17:36.278Z,22.74
2018-06-19T16:20:04.860Z,22.75
2018-06-19T16:22:33.398Z,22.81
2018-06-19T16:25:01.834Z,22.79
2018-06-19T16:27:30.356Z,22.86
2018-06-19T16:29:58.945Z,22.88
2018-06-19T16:32:27.386Z,22.90
2018-06-19T16:34:55.816Z,22.96
2018-06-19T16:37:24.330Z,23.01
2018-06-19T16:39:55.736Z,22.96
2018-06-19T16:42:24.279Z,22.98
2018-06-19T16:44:52.854Z,23.01
2018-06-19T16:47:22.835Z,23.04
2018-06-19T16:49:51.254Z,23.00
2018-06-19T16:52:19.745Z,22.95
2018-06-19T16:54:48.337Z,22.93
2018-06-19T16:57:16.916Z,22.88
2018-06-19T16:59:45.593Z,22.78
2018-06-19T17:02:14.570Z,22.61
2018-06-19T17:04:43.071Z,22.54
2018-06-19T17:07:12.800Z,22.50
2018-06-19T17:09:41.307Z,22.43
2018-06-19T17:12:11.275Z,22.33
2018-06-19T17:14:39.843Z,22.23
2018-06-19T17:17:08.705Z,22.20
2018-06-19T17:19:37.196Z,22.15
2018-06-19T17:22:05.821Z,22.14
2018-06-19T17:24:36.176Z,22.15
2018-06-19T17:27:04.712Z,22.16
2018-06-19T17:29:33.198Z,22.15
2018-06-19T17:32:02.551Z,22.15
2018-06-19T17:34:31.018Z,22.16
2018-06-19T17:36:59.889Z,22.18
2018-06-19T17:39:28.481Z,22.20
2018-06-19T17:41:56.953Z,22.20
2018-06-19T17:44:25.435Z,22.15
2018-06-19T17:46:54.142Z,22.15
2018-06-19T17:49:22.714Z,22.15
2018-06-19T17:51:51.639Z,22.10
2018-06-19T17:54:20.425Z,22.02
2018-06-19T17:56:49.044Z,21.96
2018-06-19T17:59:17.537Z,21.91
2018-06-19T18:01:49.830Z,21.85
2018-06-19T18:04:18.433Z,21.75
2018-06-19T18:06:49.870Z,21.69
2018-06-19T18:09:18.394Z,21.62
2018-06-19T18:11:47.103Z,21.58
2018-06-19T18:14:15.701Z,21.53
2018-06-19T18:16:44.327Z,21.49
2018-06-19T18:19:13.041Z,21.46
2018-06-19T18:21:42.681Z,21.43
2018-06-19T18:24:11.219Z,21.41
2018-06-19T18:26:39.766Z,21.38
2018-06-19T18:29:08.321Z,21.35
2018-06-19T18:31:38.356Z,21.34
2018-06-19T18:34:07.286Z,21.33
2018-06-19T18:36:36.235Z,21.32
2018-06-19T18:39:06.573Z,21.28
2018-06-19T18:41:35.790Z,21.25
2018-06-19T18:44:04.677Z,21.24
2018-06-19T18:46:33.285Z,21.23
2018-06-19T18:49:01.741Z,21.23
2018-06-19T18:51:30.293Z,21.19
2018-06-19T18:53:58.798Z,21.19
2018-06-19T18:56:27.370Z,21.20
2018-06-19T18:59:12.990Z,21.17
2018-06-19T19:01:43.187Z,21.14
2018-06-19T19:04:11.755Z,21.08
2018-06-19T19:06:40.328Z,21.05
2018-06-19T19:09:10.158Z,21.07
2018-06-19T19:11:38.751Z,21.03
2018-06-19T19:14:07.221Z,21.01
2018-06-19T19:16:41.544Z,21.00
2018-06-19T19:19:13.485Z,20.96
2018-06-19T19:21:41.988Z,20.94
2018-06-19T19:24:10.582Z,20.92
2018-06-19T19:26:44.298Z,20.91
2018-06-19T19:29:17.976Z,20.90
2018-06-19T19:35:13.506Z,20.81
2018-06-19T19:37:47.217Z,20.81
2018-06-19T19:40:28.764Z,20.80
2018-06-19T19:46:28.311Z,20.73
2018-06-19T19:48:56.944Z,20.77
2018-06-19T19:51:26.260Z,20.80
2018-06-19T19:53:54.842Z,20.78
2018-06-19T19:56:28.687Z,20.76
2018-06-19T19:58:57.346Z,20.73
2018-06-19T20:01:25.928Z,20.71
2018-06-19T20:03:54.521Z,20.69
2018-06-19T20:06:23.663Z,20.64
2018-06-19T20:08:52.411Z,20.63
2018-06-19T23:02:21.297Z,19.38
2018-06-19T23:04:49.798Z,19.35
2018-06-19T23:07:18.375Z,19.35
2018-06-19T23:09:47.483Z,19.36
2018-06-19T23:12:16.011Z,19.38
2018-06-19T23:14:44.453Z,19.37
2018-06-19T23:17:12.978Z,19.38
2018-06-19T23:19:41.508Z,19.39
2018-06-19T23:22:09.984Z,19.40
2018-06-19T23:24:38.489Z,19.41
2018-06-19T23:27:06.953Z,19.41
2018-06-19T23:29:35.413Z,19.41
2018-06-19T23:32:03.905Z,19.41
2018-06-19T23:34:32.381Z,19.40
2018-06-19T23:37:00.894Z,19.41
2018-06-19T23:39:29.350Z,19.42
2018-06-19T23:41:57.832Z,19.40
2018-06-19T23:44:26.311Z,19.40
2018-06-19T23:46:54.813Z,19.40
2018-06-19T23:49:23.277Z,19.39
2018-06-19T23:51:51.821Z,19.40
2018-06-19T23:54:20.445Z,19.39
2018-06-19T23:56:49.050Z,19.40
2018-06-19T23:59:17.512Z,19.39
